Time;durP1;ratioP1;P1;durP2;ratioP2;P2;SDS_P1;SDS_P2;PMS_P1;PMS_P2;Temp;Humidity;BMP_temperature;BMP_pressure;BME280_temperature;BME280_humidity;BME280_pressure;Samples;Min_cycle;Max_cycle;Signal;HPM_P1;HPM_P2
2023/12/05 00:01:54;;;;;;;5.83;5.43;;;4.50;58.40;;;;;;20739;6864;68027;-75
2023/12/05 00:04:19;;;;;;;6.07;5.57;;;4.50;58.50;;;;;;20782;6849;68069;-75
2023/12/05 00:06:45;;;;;;;7.05;6.55;;;4.30;58.50;;;;;;20516;6864;309068;-76
2023/12/05 00:09:12;;;;;;;6.07;5.57;;;4.50;58.60;;;;;;20718;6866;67702;-76
2023/12/05 00:11:40;;;;;;;5.77;5.27;;;4.50;58.40;;;;;;20780;6849;67502;-76
2023/12/05 00:14:06;;;;;;;7.40;6.80;;;4.40;58.60;;;;;;20571;6849;324120;-76
2023/12/05 00:16:31;;;;;;;5.90;5.33;;;4.50;58.60;;;;;;20737;6864;68153;-76
2023/12/05 00:18:57;;;;;;;5.35;4.95;;;4.60;58.50;;;;;;20772;6849;68307;-76
2023/12/05 00:21:24;;;;;;;6.40;6.00;;;4.40;58.60;;;;;;20569;6849;337267;-76
2023/12/05 00:23:48;;;;;;;7.18;6.68;;;4.60;59.00;;;;;;20522;6864;312389;-76
2023/12/05 00:26:14;;;;;;;6.47;5.97;;;4.90;58.60;;;;;;20729;6866;68223;-77
2023/12/05 00:28:40;;;;;;;7.13;6.63;;;4.90;58.30;;;;;;20562;6849;308586;-76
2023/12/05 00:31:06;;;;;;;7.40;6.90;;;4.90;58.30;;;;;;20546;6855;309912;-76
2023/12/05 00:33:31;;;;;;;7.60;7.10;;;5.20;58.10;;;;;;20571;6849;278806;-76
2023/12/05 00:35:57;;;;;;;5.93;5.53;;;5.30;57.50;;;;;;20783;6849;68388;-76
2023/12/05 00:38:23;;;;;;;7.30;6.80;;;5.20;57.40;;;;;;20525;6864;281351;-77
2023/12/05 00:40:49;;;;;;;6.43;5.93;;;5.20;57.60;;;;;;20668;6864;68883;-76
2023/12/05 00:43:14;;;;;;;6.83;6.40;;;5.10;57.60;;;;;;20552;6849;308122;-76
2023/12/05 00:45:40;;;;;;;7.27;6.73;;;5.10;58.00;;;;;;20527;6864;287970;-76
2023/12/05 00:48:05;;;;;;;6.60;6.20;;;5.30;57.90;;;;;;20521;6864;308310;-76
2023/12/05 00:50:31;;;;;;;7.57;7.00;;;5.40;57.60;;;;;;20518;6864;279992;-76
2023/12/05 00:52:56;;;;;;;6.97;6.47;;;5.50;57.30;;;;;;20528;6863;279495;-76
2023/12/05 00:55:22;;;;;;;6.07;5.67;;;5.60;57.30;;;;;;20740;6864;67666;-76
2023/12/05 00:57:47;;;;;;;7.30;6.70;;;5.50;57.40;;;;;;20527;6864;279126;-76
2023/12/05 01:00:13;;;;;;;7.60;7.00;;;5.40;57.70;;;;;;20523;6864;309249;-76
2023/12/05 01:02:39;;;;;;;8.07;7.57;;;5.50;57.60;;;;;;20532;6864;308726;-76
2023/12/05 01:05:08;;;;;;;8.60;8.00;;;5.60;56.70;;;;;;20515;6864;337910;-77
2023/12/05 01:07:31;;;;;;;6.17;5.77;;;5.60;57.40;;;;;;20727;6864;69501;-76
2023/12/05 01:09:57;;;;;;;7.13;6.53;;;5.10;57.60;;;;;;20732;6864;68036;-76
2023/12/05 01:12:22;;;;;;;7.47;6.77;;;5.10;57.60;;;;;;20739;6864;68111;-76
2023/12/05 01:14:48;;;;;;;10.93;10.10;;;4.80;58.30;;;;;;20524;6864;308943;-76
2023/12/05 01:17:14;;;;;;;8.60;7.80;;;4.80;58.70;;;;;;20735;6864;68037;-77
2023/12/05 01:19:39;;;;;;;11.07;10.18;;;4.70;58.60;;;;;;20515;6864;279515;-77
2023/12/05 01:22:05;;;;;;;8.50;7.80;;;4.70;58.80;;;;;;20782;6849;68491;-76
2023/12/05 01:24:30;;;;;;;10.80;9.87;;;4.70;58.70;;;;;;20530;6864;308723;-77
2023/12/05 01:26:56;;;;;;;11.98;10.98;;;4.80;59.00;;;;;;20518;6864;309346;-76
2023/12/05 01:29:21;;;;;;;12.23;11.20;;;4.90;58.60;;;;;;20524;6864;338758;-76
2023/12/05 01:31:48;;;;;;;11.03;9.93;;;5.10;58.20;;;;;;20741;6864;67749;-76
2023/12/05 01:34:14;;;;;;;12.88;11.68;;;5.00;58.10;;;;;;20522;6864;334444;-76
2023/12/05 01:36:39;;;;;;;13.25;12.05;;;5.00;58.40;;;;;;20522;6864;311604;-76
2023/12/05 01:39:05;;;;;;;11.07;10.00;;;5.10;58.00;;;;;;20737;6864;69144;-76
2023/12/05 01:41:30;;;;;;;9.90;9.00;;;5.00;57.90;;;;;;20731;6866;68058;-76
2023/12/05 01:43:56;;;;;;;12.98;11.82;;;4.70;58.40;;;;;;20549;6859;278417;-76
2023/12/05 01:46:23;;;;;;;14.07;12.82;;;4.70;58.70;;;;;;20573;6849;308277;-77
2023/12/05 01:48:48;;;;;;;14.10;12.85;;;4.80;58.40;;;;;;20520;6866;308908;-76
2023/12/05 01:51:15;;;;;;;15.15;13.65;;;5.00;58.00;;;;;;20537;6859;279275;-76
2023/12/05 01:53:41;;;;;;;11.60;10.53;;;5.10;57.60;;;;;;20777;6849;67538;-77
2023/12/05 01:56:07;;;;;;;13.57;12.37;;;4.90;57.50;;;;;;20562;6849;280565;-76
2023/12/05 01:58:33;;;;;;;10.40;9.30;;;4.70;58.10;;;;;;20722;6849;118841;-76
2023/12/05 02:00:58;;;;;;;9.07;8.27;;;4.70;58.10;;;;;;20709;6864;119586;-76
2023/12/05 02:03:27;;;;;;;9.77;8.88;;;4.10;59.10;;;;;;20702;6863;117726;-76
2023/12/05 02:05:55;;;;;;;10.03;8.97;;;4.10;59.10;;;;;;20680;6654;117357;31
2023/12/05 02:08:31;;;;;;;8.43;7.60;;;3.70;60.00;;;;;;20760;6796;117112;-69
2023/12/05 02:11:07;;;;;;;8.20;7.50;;;3.70;60.00;;;;;;20676;6784;118159;-69
2023/12/05 02:13:43;;;;;;;8.97;8.17;;;3.40;60.80;;;;;;20816;6768;116957;-70
2023/12/05 02:16:22;;;;;;;8.07;7.27;;;3.40;60.80;;;;;;20811;6776;116911;-70
2023/12/05 02:19:03;;;;;;;7.27;6.57;;;3.20;61.10;;;;;;20774;6797;117982;-69
2023/12/05 02:21:39;;;;;;;8.07;7.33;;;3.10;61.50;;;;;;20045;6896;118833;-69
2023/12/05 02:24:34;;;;;;;7.80;7.10;;;3.00;61.90;;;;;;20804;6775;117102;-69
2023/12/05 02:27:37;;;;;;;8.33;7.53;;;2.90;62.50;;;;;;18986;7421;120448;-70
2023/12/05 02:30:15;;;;;;;10.95;10.05;;;2.90;62.50;;;;;;20569;6781;307603;-68
2023/12/05 02:32:49;;;;;;;7.87;7.17;;;3.30;62.50;;;;;;20867;6760;117562;-69
2023/12/05 02:35:25;;;;;;;6.50;5.93;;;3.20;62.70;;;;;;20848;6760;120566;-69
2023/12/05 02:38:11;;;;;;;7.30;6.53;;;3.20;62.70;;;;;;20814;6775;117422;-69
2023/12/05 02:40:53;;;;;;;9.80;9.00;;;3.40;63.80;;;;;;20594;6778;339556;-67
2023/12/05 02:43:39;;;;;;;6.53;6.03;;;3.40;63.80;;;;;;20852;6770;117613;-70
2023/12/05 02:46:14;;;;;;;9.57;8.87;;;3.50;63.40;;;;;;20658;6770;307046;-68
2023/12/05 02:48:50;;;;;;;7.10;6.60;;;3.70;64.00;;;;;;20861;6770;116848;-68
2023/12/05 02:51:29;;;;;;;9.10;8.40;;;3.80;63.50;;;;;;20546;6770;278213;-69
2023/12/05 02:54:05;;;;;;;9.63;8.93;;;4.00;63.50;;;;;;20579;6794;291335;-69
2023/12/05 02:56:37;;;;;;;9.50;8.80;;;4.30;63.30;;;;;;20570;6794;307164;-69
2023/12/05 02:59:12;;;;;;;7.93;7.23;;;4.60;62.50;;;;;;20767;6799;119786;-70
2023/12/05 03:01:48;;;;;;;6.87;6.37;;;4.60;61.90;;;;;;20666;6799;117772;-69
2023/12/05 03:04:24;;;;;;;7.37;6.23;;;4.30;62.30;;;;;;20783;6799;117432;-69
2023/12/05 03:06:59;;;;;;;6.60;6.10;;;4.10;63.00;;;;;;20773;6789;117120;-69
2023/12/05 03:09:35;;;;;;;7.23;6.53;;;3.90;63.30;;;;;;20803;6768;121679;-68
2023/12/05 03:12:10;;;;;;;8.03;7.23;;;3.70;63.50;;;;;;20687;6783;117180;-69
2023/12/05 03:14:47;;;;;;;10.87;9.87;;;3.70;64.00;;;;;;20533;6798;337744;-68
2023/12/05 03:17:22;;;;;;;11.52;10.52;;;3.70;64.00;;;;;;20588;6775;308083;-69
2023/12/05 03:19:58;;;;;;;11.02;10.13;;;4.00;63.10;;;;;;20721;6750;276291;-68
2023/12/05 03:22:33;;;;;;;7.57;6.97;;;4.30;62.30;;;;;;20939;6751;117048;-68
2023/12/05 03:25:09;;;;;;;10.23;9.43;;;4.30;61.90;;;;;;20716;6751;335494;-68
2023/12/05 03:27:45;;;;;;;10.00;9.20;;;4.40;62.40;;;;;;20705;6751;335620;-68
2023/12/05 03:30:20;;;;;;;7.67;7.07;;;4.60;62.10;;;;;;20865;6766;117126;-68
2023/12/05 03:32:56;;;;;;;7.23;6.63;;;4.50;61.90;;;;;;20884;6766;116729;-68
2023/12/05 03:35:31;;;;;;;5.70;5.30;;;4.30;62.40;;;;;;20820;6780;117158;-68
2023/12/05 03:38:07;;;;;;;6.83;6.33;;;4.10;62.90;;;;;;20540;6795;303565;-68
2023/12/05 03:40:43;;;;;;;4.67;4.33;;;4.10;63.70;;;;;;20700;6785;117113;-69
2023/12/05 03:43:18;;;;;;;6.10;5.60;;;4.10;63.20;;;;;;20566;6795;331742;-68
2023/12/05 03:45:54;;;;;;;5.40;5.10;;;4.30;63.70;;;;;;20534;6810;307587;-68
2023/12/05 03:48:29;;;;;;;5.40;5.10;;;4.50;63.20;;;;;;20539;6792;336653;-68
2023/12/05 03:51:05;;;;;;;7.47;3.80;;;4.80;62.50;;;;;;20737;6774;118096;-68
2023/12/05 03:53:41;;;;;;;5.30;4.93;;;4.70;62.10;;;;;;20556;6788;278967;-68
2023/12/05 03:56:16;;;;;;;6.00;5.50;;;4.70;62.90;;;;;;20533;6799;309119;-68
2023/12/05 03:58:52;;;;;;;4.83;4.43;;;4.90;62.10;;;;;;20774;6785;117682;-69
2023/12/05 04:01:28;;;;;;;4.80;4.40;;;4.80;61.80;;;;;;20663;6785;117555;-69
2023/12/05 04:04:07;;;;;;;3.80;3.60;;;4.30;63.10;;;;;;20726;6803;117167;-69
2023/12/05 04:06:40;;;;;;;3.53;3.33;;;4.30;63.10;;;;;;20756;6794;117009;-69
2023/12/05 04:09:15;;;;;;;5.20;4.80;;;4.10;63.60;;;;;;20570;6776;306842;-68
2023/12/05 04:11:51;;;;;;;5.82;5.43;;;4.20;64.00;;;;;;20459;6776;339504;-69
2023/12/05 04:14:26;;;;;;;5.45;5.15;;;4.50;63.10;;;;;;20609;6780;328318;-69
2023/12/05 04:17:03;;;;;;;4.40;4.10;;;4.70;62.10;;;;;;20744;6785;117195;-69
2023/12/05 04:19:38;;;;;;;6.27;5.87;;;4.60;61.50;;;;;;20636;6758;279561;-68
2023/12/05 04:22:13;;;;;;;5.90;5.50;;;4.60;61.80;;;;;;20527;6758;336581;-69
2023/12/05 04:24:50;;;;;;;4.97;4.63;;;4.60;60.80;;;;;;20977;6743;117232;-68
2023/12/05 04:27:25;;;;;;;6.18;5.78;;;4.60;60.80;;;;;;20678;6743;277968;-70
2023/12/05 04:30:01;;;;;;;6.53;6.10;;;4.60;60.90;;;;;;20565;6785;308733;-70
2023/12/05 04:32:37;;;;;;;7.00;6.50;;;4.80;60.50;;;;;;20633;6772;336717;-70
2023/12/05 04:35:15;;;;;;;5.63;5.20;;;4.90;59.80;;;;;;20831;6786;117074;-70
2023/12/05 04:37:48;;;;;;;6.57;6.07;;;4.70;59.80;;;;;;20621;6766;337102;-69
2023/12/05 04:40:24;;;;;;;4.37;4.07;;;4.40;60.40;;;;;;20756;6786;117158;-70
2023/12/05 04:43:00;;;;;;;3.83;3.53;;;4.40;60.40;;;;;;20810;6780;117068;-69
2023/12/05 04:45:35;;;;;;;5.20;4.90;;;4.10;61.20;;;;;;20606;6766;307945;-70
2023/12/05 04:48:11;;;;;;;4.20;3.90;;;4.20;61.90;;;;;;20764;6784;117055;-70
2023/12/05 04:50:46;;;;;;;3.57;3.37;;;4.10;61.80;;;;;;20739;6786;117189;-70
2023/12/05 04:53:22;;;;;;;3.27;2.97;;;3.90;62.50;;;;;;20797;6778;117443;-70
2023/12/05 04:55:58;;;;;;;5.28;4.87;;;3.80;63.30;;;;;;20558;6790;337693;-70
2023/12/05 04:58:33;;;;;;;5.40;5.00;;;3.90;63.90;;;;;;20591;6775;309669;-70
2023/12/05 05:01:09;;;;;;;3.97;3.67;;;4.20;63.30;;;;;;20697;6781;117866;-70
2023/12/05 05:03:45;;;;;;;3.87;3.57;;;4.20;62.80;;;;;;20805;6779;117672;-69
2023/12/05 05:06:21;;;;;;;5.03;4.70;;;4.00;63.10;;;;;;20647;6779;307092;-69
2023/12/05 05:08:56;;;;;;;4.07;3.77;;;4.10;63.60;;;;;;20850;6779;117306;-70
2023/12/05 05:11:32;;;;;;;3.83;3.63;;;4.00;63.70;;;;;;20717;6779;117338;-70
2023/12/05 05:14:08;;;;;;;3.77;3.43;;;4.00;63.70;;;;;;20798;6797;117938;-70
2023/12/05 05:16:43;;;;;;;5.13;4.70;;;3.80;64.10;;;;;;20537;6794;337907;-70
2023/12/05 05:19:19;;;;;;;3.60;3.40;;;4.00;64.50;;;;;;20734;6794;117562;-70
2023/12/05 05:21:54;;;;;;;4.33;4.03;;;4.00;63.90;;;;;;20398;6797;328041;-69
2023/12/05 05:24:32;;;;;;;3.50;3.30;;;4.20;64.20;;;;;;20763;6784;118009;-69
2023/12/05 05:27:06;;;;;;;4.25;3.95;;;4.20;63.90;;;;;;20539;6796;308437;-69
2023/12/05 05:29:41;;;;;;;3.50;3.23;;;4.40;64.30;;;;;;20752;6785;118095;-69
2023/12/05 05:32:17;;;;;;;4.37;4.07;;;4.40;64.10;;;;;;20395;6793;331237;-69
2023/12/05 05:34:53;;;;;;;3.60;3.40;;;4.60;63.80;;;;;;20747;6794;117121;-69
2023/12/05 05:37:29;;;;;;;3.30;3.10;;;4.60;63.80;;;;;;20798;6777;117424;-69
2023/12/05 05:40:06;;;;;;;3.83;3.53;;;4.50;64.30;;;;;;20603;6778;306119;-69
2023/12/05 05:42:40;;;;;;;3.20;2.83;;;4.60;64.40;;;;;;20817;6774;117956;-69
2023/12/05 05:45:16;;;;;;;3.10;2.80;;;4.70;64.20;;;;;;20927;6733;117221;-70
2023/12/05 05:47:51;;;;;;;3.40;3.20;;;4.60;64.50;;;;;;20698;6733;335984;-69
2023/12/05 05:50:28;;;;;;;3.30;3.10;;;5.10;63.40;;;;;;20695;6733;308716;-69
2023/12/05 05:53:03;;;;;;;2.53;2.43;;;5.00;63.20;;;;;;20940;6733;118706;-70
2023/12/05 05:55:39;;;;;;;2.70;2.50;;;5.10;62.70;;;;;;20894;6733;116826;-69
2023/12/05 05:58:15;;;;;;;2.37;2.27;;;4.60;63.40;;;;;;20789;6783;117496;-70
2023/12/05 06:00:52;;;;;;;3.40;3.20;;;4.70;63.40;;;;;;20539;6783;337535;-70
2023/12/05 06:03:30;;;;;;;3.22;3.03;;;4.70;63.30;;;;;;20596;6764;338521;-71
2023/12/05 06:06:04;;;;;;;2.27;2.17;;;4.90;61.90;;;;;;20799;6779;117471;-70
2023/12/05 06:08:40;;;;;;;2.78;2.67;;;4.90;62.00;;;;;;20517;6794;318386;-69
2023/12/05 06:11:17;;;;;;;2.30;2.10;;;4.90;62.00;;;;;;20656;6794;117828;-71
2023/12/05 06:13:52;;;;;;;2.50;2.03;;;4.90;62.00;;;;;;20745;6794;117306;-71
2023/12/05 06:16:27;;;;;;;2.90;2.70;;;4.60;62.60;;;;;;20526;6797;279280;-70
2023/12/05 06:19:03;;;;;;;1.97;1.87;;;4.70;63.00;;;;;;20787;6779;117052;-70
2023/12/05 06:21:39;;;;;;;2.43;1.90;;;4.60;62.80;;;;;;20695;6773;117327;-71
2023/12/05 06:24:18;;;;;;;2.30;2.10;;;4.60;63.80;;;;;;20593;6769;321232;-70
2023/12/05 06:26:52;;;;;;;1.80;1.73;;;4.60;63.70;;;;;;20837;6766;117540;-70
2023/12/05 06:29:27;;;;;;;2.30;2.20;;;4.80;63.60;;;;;;20626;6768;277131;-70
2023/12/05 06:32:03;;;;;;;2.65;2.17;;;4.70;63.50;;;;;;20431;6773;311504;-70
2023/12/05 06:34:39;;;;;;;1.83;1.73;;;5.10;62.40;;;;;;20799;6788;118566;-69
2023/12/05 06:37:15;;;;;;;2.28;2.00;;;5.00;62.30;;;;;;20555;6778;296120;-71
2023/12/05 06:39:50;;;;;;;1.87;1.77;;;5.10;62.50;;;;;;20782;6783;117202;-69
2023/12/05 06:42:27;;;;;;;1.90;1.80;;;5.10;62.40;;;;;;20641;6835;117364;-70
2023/12/05 06:45:02;;;;;;;2.30;2.10;;;4.90;62.90;;;;;;20619;6775;307244;-69
2023/12/05 06:47:38;;;;;;;1.83;1.73;;;5.00;63.00;;;;;;20828;6775;122384;-69
2023/12/05 06:50:15;;;;;;;3.00;1.90;;;4.90;62.90;;;;;;20581;6777;310508;-69
2023/12/05 06:52:51;;;;;;;4.03;1.80;;;5.10;62.90;;;;;;20687;6758;336476;-69
2023/12/05 06:55:25;;;;;;;2.37;1.50;;;5.40;62.00;;;;;;20821;6778;117511;-68
2023/12/05 06:58:03;;;;;;;1.83;1.40;;;5.30;62.00;;;;;;20804;6774;117013;-69
2023/12/05 07:00:38;;;;;;;1.80;1.67;;;5.20;62.50;;;;;;20744;6786;117048;-70
2023/12/05 07:03:14;;;;;;;2.20;2.00;;;5.00;63.50;;;;;;20620;6764;306734;-69
2023/12/05 07:05:49;;;;;;;2.40;2.20;;;5.10;63.10;;;;;;20639;6764;337945;-70
2023/12/05 07:08:26;;;;;;;2.10;2.00;;;5.40;62.10;;;;;;20648;6754;306281;-69
2023/12/05 07:11:01;;;;;;;2.12;1.98;;;5.60;61.10;;;;;;20564;6754;339781;-69
2023/12/05 07:13:36;;;;;;;2.20;2.00;;;5.80;60.30;;;;;;20610;6775;307743;-69
2023/12/05 07:16:12;;;;;;;2.47;1.90;;;6.00;59.70;;;;;;20902;6748;120561;-69
2023/12/05 07:18:49;;;;;;;1.90;1.80;;;5.50;60.40;;;;;;20787;6766;117107;-70
2023/12/05 07:21:24;;;;;;;2.67;2.30;;;5.50;60.40;;;;;;20491;6782;279100;-71
2023/12/05 07:23:59;;;;;;;2.00;1.90;;;5.50;60.60;;;;;;20824;6772;117349;-70
2023/12/05 07:26:38;;;;;;;4.43;2.30;;;5.40;60.70;;;;;;20836;6775;117147;-70
2023/12/05 07:29:11;;;;;;;2.63;2.17;;;5.10;61.20;;;;;;20584;6773;283089;-70
2023/12/05 07:31:46;;;;;;;2.72;2.53;;;5.20;61.30;;;;;;20450;6792;311159;-70
2023/12/05 07:34:22;;;;;;;2.50;2.30;;;5.40;60.70;;;;;;20607;6769;309765;-70
2023/12/05 07:37:00;;;;;;;3.72;2.20;;;5.70;60.00;;;;;;20635;6773;310564;-70
2023/12/05 07:39:33;;;;;;;2.30;2.10;;;5.80;59.40;;;;;;20558;6763;338391;-69
2023/12/05 07:42:09;;;;;;;3.17;1.95;;;6.00;59.10;;;;;;20497;6763;338341;-70
2023/12/05 07:44:45;;;;;;;2.85;2.00;;;6.20;58.70;;;;;;20673;6763;278590;-69
2023/12/05 07:47:21;;;;;;;2.93;1.50;;;6.20;58.80;;;;;;20876;6749;117293;-71
2023/12/05 07:49:56;;;;;;;3.25;2.10;;;6.10;59.20;;;;;;20655;6749;328591;-70
2023/12/05 07:52:32;;;;;;;2.53;2.22;;;6.10;59.20;;;;;;20659;6749;336691;-70
2023/12/05 07:55:08;;;;;;;2.97;2.20;;;6.30;59.00;;;;;;20644;6749;306837;-70
2023/12/05 07:57:43;;;;;;;3.87;3.60;;;6.50;58.70;;;;;;20533;6791;278704;-72
2023/12/05 08:00:19;;;;;;;4.17;2.80;;;6.70;58.30;;;;;;20765;6782;117113;-72
2023/12/05 08:02:56;;;;;;;5.60;3.13;;;6.30;60.00;;;;;;20838;6795;117550;-72
2023/12/05 08:05:31;;;;;;;3.78;3.53;;;6.30;59.30;;;;;;20561;6765;336030;-71
2023/12/05 08:08:06;;;;;;;4.53;4.22;;;6.40;59.30;;;;;;20665;6650;306722;-74
2023/12/05 08:10:45;;;;;;;5.10;4.60;;;6.90;57.50;;;;;;20605;6736;280546;-72
2023/12/05 08:13:18;;;;;;;4.50;4.10;;;6.90;57.50;;;;;;20674;6757;306989;-72
2023/12/05 08:15:54;;;;;;;3.80;3.50;;;7.10;56.80;;;;;;20921;6749;67765;-72
2023/12/05 08:18:29;;;;;;;10.32;9.32;;;7.10;57.20;;;;;;20638;6770;322051;-71
2023/12/05 08:21:05;;;;;;;16.90;13.67;;;7.10;57.00;;;;;;20698;6772;68128;-75
2023/12/05 08:23:41;;;;;;;9.43;8.63;;;7.10;57.70;;;;;;20924;6757;72832;-76
2023/12/05 08:26:16;;;;;;;6.47;5.87;;;7.10;58.50;;;;;;20733;6742;335951;-72
2023/12/05 08:28:52;;;;;;;5.27;4.77;;;7.20;58.00;;;;;;20880;6757;67328;-73
2023/12/05 08:31:27;;;;;;;4.70;4.30;;;7.40;58.30;;;;;;20686;6757;279435;-72
2023/12/05 08:34:03;;;;;;;4.50;4.20;;;7.60;57.10;;;;;;20682;6757;338130;-73
2023/12/05 08:36:39;;;;;;;4.07;3.80;;;8.00;55.30;;;;;;20896;6757;73340;-72
2023/12/05 08:39:14;;;;;;;4.70;4.30;;;7.90;55.40;;;;;;20640;6757;316909;-72
2023/12/05 08:41:50;;;;;;;4.87;4.20;;;7.90;54.50;;;;;;20945;6742;68028;-72
2023/12/05 08:44:25;;;;;;;3.83;3.60;;;7.80;55.00;;;;;;20949;6742;68632;-72
2023/12/05 08:47:01;;;;;;;4.53;4.22;;;7.50;55.70;;;;;;20665;6757;337759;-72
2023/12/05 08:49:37;;;;;;;5.07;4.68;;;7.50;55.10;;;;;;20662;6759;334873;-76
2023/12/05 08:52:12;;;;;;;5.10;4.70;;;7.60;54.30;;;;;;20463;6777;280559;-76
2023/12/05 08:54:48;;;;;;;5.40;4.07;;;7.80;54.10;;;;;;20887;6760;72974;-74
2023/12/05 08:57:24;;;;;;;3.90;3.70;;;7.70;54.80;;;;;;20673;6760;326350;-72
2023/12/05 09:00:00;;;;;;;3.20;3.00;;;7.70;54.80;;;;;;20795;6760;68176;-71
2023/12/05 09:02:35;;;;;;;3.47;3.27;;;7.60;55.20;;;;;;20897;6757;68059;-72
2023/12/05 09:05:11;;;;;;;4.20;3.90;;;7.50;55.80;;;;;;20668;6760;326777;-72
2023/12/05 09:07:47;;;;;;;4.25;3.87;;;7.60;55.60;;;;;;20679;6760;306514;-72
2023/12/05 09:10:22;;;;;;;3.97;3.43;;;7.90;54.70;;;;;;20762;6760;67695;-73
2023/12/05 09:12:58;;;;;;;4.07;3.67;;;7.90;54.90;;;;;;20675;6757;336230;-74
2023/12/05 09:15:33;;;;;;;4.00;3.63;;;8.10;54.40;;;;;;20941;6757;67798;-74
2023/12/05 09:18:10;;;;;;;4.25;3.75;;;8.10;54.90;;;;;;20732;6757;306399;-72
2023/12/05 09:20:44;;;;;;;4.33;3.20;;;8.20;54.30;;;;;;20881;6757;68030;-74
2023/12/05 09:23:20;;;;;;;3.70;3.40;;;8.30;54.70;;;;;;20735;6757;303932;-73
2023/12/05 09:25:56;;;;;;;3.23;3.03;;;8.40;54.00;;;;;;20939;6757;67152;-72
2023/12/05 09:28:35;;;;;;;3.72;3.47;;;8.60;53.70;;;;;;20711;6757;335972;-74
2023/12/05 09:31:07;;;;;;;3.90;3.60;;;8.60;53.70;;;;;;20643;6757;308970;-74
2023/12/05 09:33:43;;;;;;;3.60;3.30;;;8.80;52.50;;;;;;20726;6760;306675;-76
2023/12/05 09:36:19;;;;;;;4.03;3.72;;;9.10;51.30;;;;;;20713;6760;336361;-74
2023/12/05 09:38:59;;;;;;;3.57;3.37;;;8.90;52.80;;;;;;20913;6760;69520;-73
2023/12/05 09:41:34;;;;;;;3.27;3.07;;;8.90;52.10;;;;;;20942;6757;73191;-74
2023/12/05 09:44:10;;;;;;;3.57;3.27;;;8.60;53.10;;;;;;20890;6757;67683;-73
2023/12/05 09:46:45;;;;;;;4.20;3.90;;;8.20;53.90;;;;;;20620;6772;308826;-73
2023/12/05 09:49:21;;;;;;;4.30;3.80;;;8.20;53.50;;;;;;20708;6746;276925;-73
2023/12/05 09:51:57;;;;;;;5.97;5.40;;;8.50;53.00;;;;;;20756;6761;69735;-73
2023/12/05 09:54:35;;;;;;;5.13;4.70;;;8.40;53.40;;;;;;20632;6772;283078;-73
2023/12/05 09:57:08;;;;;;;5.10;4.80;;;8.40;53.10;;;;;;20628;6772;308182;-72
2023/12/05 09:59:43;;;;;;;6.43;6.03;;;8.60;52.60;;;;;;20668;6757;308165;-73
2023/12/05 10:02:20;;;;;;;6.90;6.30;;;8.80;52.30;;;;;;20660;6772;68507;-73
2023/12/05 10:04:55;;;;;;;4.87;4.57;;;8.70;52.80;;;;;;20653;6760;338891;-73
2023/12/05 10:07:33;;;;;;;3.33;3.00;;;8.70;52.50;;;;;;20888;6757;67666;-73
2023/12/05 10:10:07;;;;;;;3.40;2.90;;;8.40;53.90;;;;;;20942;6742;67150;-73
2023/12/05 10:12:43;;;;;;;4.27;3.97;;;8.10;55.20;;;;;;20964;6736;67060;-73
2023/12/05 10:15:19;;;;;;;3.00;2.80;;;8.10;54.60;;;;;;20955;6736;67174;-73
2023/12/05 10:17:55;;;;;;;2.60;2.50;;;7.90;55.20;;;;;;20744;6736;306106;-73
2023/12/05 10:20:30;;;;;;;2.80;2.60;;;7.90;54.30;;;;;;20922;6736;67938;-73
2023/12/05 10:23:08;;;;;;;2.13;2.03;;;7.70;55.80;;;;;;20891;6757;67704;-73
2023/12/05 10:25:44;;;;;;;2.73;2.53;;;7.90;54.70;;;;;;20667;6760;319322;-73
2023/12/05 10:28:20;;;;;;;2.62;2.35;;;7.80;54.60;;;;;;20665;6757;308049;-73
2023/12/05 10:30:57;;;;;;;3.67;3.00;;;8.20;54.00;;;;;;20658;6742;308188;-73
2023/12/05 10:33:31;;;;;;;2.80;2.60;;;8.50;53.30;;;;;;20947;6742;67261;-73
2023/12/05 10:36:13;;;;;;;3.60;3.40;;;8.40;53.70;;;;;;20719;6742;337366;-73
2023/12/05 10:38:48;;;;;;;3.80;3.33;;;8.40;53.30;;;;;;20894;6757;68102;-76
2023/12/05 10:41:24;;;;;;;2.93;2.20;;;8.30;53.90;;;;;;20864;6742;68202;-74
2023/12/05 10:44:02;;;;;;;1.97;1.80;;;8.10;54.60;;;;;;20963;6736;68123;-73
2023/12/05 10:46:38;;;;;;;2.00;1.90;;;7.90;55.30;;;;;;20943;6757;75164;-73
2023/12/05 10:49:14;;;;;;;2.85;2.65;;;7.80;55.80;;;;;;20671;6757;289192;-73
2023/12/05 10:51:49;;;;;;;1.93;1.83;;;7.90;55.10;;;;;;20805;6757;67880;-73
2023/12/05 10:54:25;;;;;;;2.23;1.77;;;7.90;55.20;;;;;;20931;6760;73589;-73
2023/12/05 10:57:00;;;;;;;1.77;1.37;;;7.80;55.80;;;;;;20927;6760;67205;-73
2023/12/05 10:59:36;;;;;;;2.33;1.98;;;7.70;56.30;;;;;;20711;6760;277235;-72
2023/12/05 11:02:12;;;;;;;1.97;1.87;;;8.00;55.70;;;;;;20772;6760;68143;-73
2023/12/05 11:04:48;;;;;;;1.90;1.80;;;8.40;55.10;;;;;;20617;6792;333088;-74
2023/12/05 11:07:23;;;;;;;1.60;1.50;;;8.30;55.00;;;;;;20841;6788;69869;-74
2023/12/05 11:10:00;;;;;;;1.67;1.30;;;8.40;55.60;;;;;;20827;6790;67874;-74
2023/12/05 11:12:35;;;;;;;1.30;1.03;;;8.40;55.60;;;;;;20786;6792;67528;-73
2023/12/05 11:15:12;;;;;;;1.70;1.15;;;8.50;55.60;;;;;;20631;6775;308804;-72
2023/12/05 11:17:50;;;;;;;1.60;1.50;;;8.50;54.90;;;;;;20793;6790;73057;-70
2023/12/05 11:20:30;;;;;;;1.90;1.60;;;8.50;54.90;;;;;;20696;6797;68129;-72
2023/12/05 11:23:15;;;;;;;2.00;1.20;;;8.50;55.30;;;;;;20678;6775;323728;-71
2023/12/05 11:26:16;;;;;;;1.27;1.17;;;8.60;54.40;;;;;;20891;6775;67575;-73
2023/12/05 11:29:08;;;;;;;1.03;0.93;;;8.70;54.60;;;;;;20857;6775;68709;-72
2023/12/05 11:31:52;;;;;;;1.43;1.13;;;8.50;55.50;;;;;;20844;6775;68269;-71
2023/12/05 11:34:30;;;;;;;1.48;0.75;;;8.40;55.40;;;;;;20629;6775;276773;-73
2023/12/05 11:37:09;;;;;;;0.73;0.73;;;8.60;54.00;;;;;;20628;6775;336086;-71
2023/12/05 11:39:45;;;;;;;1.77;0.73;;;9.00;52.70;;;;;;20567;6774;337658;-72
2023/12/05 11:42:20;;;;;;;0.70;0.70;;;9.30;51.70;;;;;;20827;6781;68203;-71
2023/12/05 11:44:56;;;;;;;0.50;0.50;;;9.30;52.40;;;;;;20825;6780;69190;-72
2023/12/05 11:47:31;;;;;;;0.75;0.75;;;9.10;53.00;;;;;;20638;6769;336760;-75
2023/12/05 11:50:07;;;;;;;0.60;0.60;;;9.10;52.20;;;;;;20487;6787;309130;-72
2023/12/05 11:52:44;;;;;;;1.17;0.80;;;9.50;51.50;;;;;;20599;6784;307162;-72
2023/12/05 11:55:19;;;;;;;0.77;0.70;;;9.50;50.80;;;;;;20885;6775;68443;-73
2023/12/05 11:57:54;;;;;;;0.50;0.50;;;9.50;51.50;;;;;;20622;6775;306369;-74
2023/12/05 12:00:30;;;;;;;1.00;0.70;;;9.50;50.90;;;;;;20514;6775;279076;-74
2023/12/05 12:03:08;;;;;;;0.70;0.70;;;9.70;50.60;;;;;;20678;6760;311043;-74
2023/12/05 12:05:41;;;;;;;1.83;0.80;;;9.80;49.90;;;;;;20620;6777;278664;-74
2023/12/05 12:08:17;;;;;;;1.43;0.70;;;9.90;49.60;;;;;;20705;6760;277576;-75
2023/12/05 12:10:55;;;;;;;0.88;0.80;;;10.00;48.60;;;;;;20545;6760;308344;-77
2023/12/05 12:13:28;;;;;;;0.90;0.80;;;10.10;48.50;;;;;;20672;6763;277216;-74
2023/12/05 12:16:04;;;;;;;2.78;1.20;;;10.20;47.70;;;;;;20667;6763;277087;-74
2023/12/05 12:18:40;;;;;;;0.70;0.70;;;10.20;47.70;;;;;;20870;6763;67187;-74
2023/12/05 12:21:16;;;;;;;0.50;0.40;;;10.00;48.80;;;;;;20716;6819;67568;-74
2023/12/05 12:23:54;;;;;;;0.83;0.60;;;9.70;50.80;;;;;;20882;6763;67545;-74
2023/12/05 12:26:32;;;;;;;0.63;0.60;;;9.30;51.60;;;;;;20643;6769;305221;-69
2023/12/05 12:29:08;;;;;;;0.80;0.80;;;9.30;50.70;;;;;;20617;6769;338345;-72
2023/12/05 12:31:44;;;;;;;0.40;0.40;;;9.50;50.20;;;;;;20822;6781;68624;-77
2023/12/05 12:34:19;;;;;;;0.93;0.60;;;9.50;50.80;;;;;;20860;6766;69564;-75
2023/12/05 12:36:56;;;;;;;1.00;0.70;;;9.20;51.60;;;;;;20616;6781;337044;-73
2023/12/05 12:39:33;;;;;;;1.80;0.70;;;9.30;51.10;;;;;;20768;6781;68612;-75
2023/12/05 12:42:10;;;;;;;0.70;0.70;;;9.30;51.70;;;;;;20658;6781;68500;-74
2023/12/05 12:44:44;;;;;;;0.93;0.70;;;9.10;52.20;;;;;;20784;6791;67793;-75
2023/12/05 12:47:20;;;;;;;1.23;0.40;;;8.90;52.90;;;;;;20894;6756;66833;-75
2023/12/05 12:49:56;;;;;;;0.73;0.73;;;8.80;53.30;;;;;;20797;6763;67957;-75
2023/12/05 12:52:31;;;;;;;1.73;0.85;;;8.60;53.50;;;;;;20585;6790;339154;-75
2023/12/05 12:55:07;;;;;;;0.83;0.77;;;8.70;52.30;;;;;;20804;6787;67805;-75
2023/12/05 12:57:46;;;;;;;1.05;0.90;;;8.80;52.70;;;;;;20536;6800;336855;-75
2023/12/05 13:00:18;;;;;;;1.43;0.70;;;8.90;51.50;;;;;;20746;6792;73242;-75
2023/12/05 13:02:54;;;;;;;0.93;0.57;;;8.90;52.00;;;;;;20793;6789;72649;-75
2023/12/05 13:05:30;;;;;;;1.00;0.80;;;8.80;52.60;;;;;;20818;6775;68464;-76
2023/12/05 13:08:05;;;;;;;2.03;0.57;;;8.70;53.20;;;;;;20827;6777;68284;-75
2023/12/05 13:10:43;;;;;;;2.10;1.03;;;8.60;53.80;;;;;;20689;6777;68539;-73
2023/12/05 13:13:19;;;;;;;0.70;0.70;;;8.50;54.10;;;;;;20665;6776;307096;-73
2023/12/05 13:15:54;;;;;;;0.73;0.73;;;8.60;52.50;;;;;;20854;6776;67693;-74
2023/12/05 13:18:45;;;;;;;0.93;0.70;;;8.80;52.90;;;;;;20661;6776;307118;-74
2023/12/05 13:21:19;;;;;;;1.40;0.77;;;8.90;51.40;;;;;;20648;6848;67685;-78
2023/12/05 13:23:54;;;;;;;1.17;1.00;;;8.90;51.90;;;;;;20642;6776;336669;-73
2023/12/05 13:26:30;;;;;;;0.83;0.60;;;9.00;50.90;;;;;;20870;6777;73395;-74